Česky Dansk Deutsch English Español Suomi Français Magyar Italiano Nederlands norsk Polski Português svenska Türkçe

 

Het Weer

Oulu (Finland)

19:20, 13 augustus 2016 (GMT)

NWNNE
WE
SWSSE
Home            
Oulu Hailuoto Pudasjarvi Kemi Kajaani Lulea / Kallax Suomussalmi Kruunupyy Rovaniemi Skelleftea Airport Viitasaari Kuusamo Pello Kauhava Kuopio Vidsel Ahtari Vaasa Umea Flygplats Sodankyla Ilmajoki Seinajoki-Ilmajok Jyvaskyla

Om een weerknop op uw website of weblog te plaatsen, copieer onderstaande code en plak die in uw pagina. In het eerste vakje staat HTML-code, in het tweede vakje UBB-code.


Add to Google

Details

Wind speed:2 bf, 5 kn, 2.6 m/s, 5.8 miles/h, 9.3 km/h
Wind direction:WSW, 240°
Visibility:Greater than 10000 m, 10 km, 32800 ft, 6.2 miles
Clouds:Ein wenig bewölkt at 600 ft, 183 m
Geschlossene Wolkendecke at 2300 ft, 701 m
Temperature:14°C, 57°F
Dew-point:14°C, 57°F
Atmospheric pressure:1001 hPa, 750.8 mmHg, 29.56 inHg, 0.988 atm
Relative humidity:100.0 %
METAR:EFOU 131920Z AUTO 24005KT 9999 FEW006 OVC023 14/14 Q1001

Snelkoppelingen

Actuele weersinformatie van de hele wereld. Voeg locaties toe met het plus (+) symbool. Deze snelkoppelingen kunnen worden toegevoegd aan Google.

Lid van de Technetium groep

website free tracking
StatCounter NetStat W3C Validator

06-12-2019 09:10:08
astro.technetium.be money.technetium.be phote.technetium.be tafeltennistafel.technetium.be www.ligfiets.net